This is the latest recevied weather packets stored in our database for station/object K1AWR. If no packets are shown the sender has not sent any weather packets the latest 1 day(s).
| Time | Temp. | Humidity | Pressure | Rain* | Wind** | Luminosity | Snow |
|---|---|---|---|---|---|---|---|
| 1778017164 | 23.89° C | 47% | 1007.9 hPa | 0 mm | - | 89 W/m² | - |
| 1778015951 | 24.44° C | 48% | 1007.6 hPa | 0 mm | - | 220 W/m² | - |
| 1778015649 | 24.44° C | 47% | 1007.5 hPa | 0 mm | - | 237 W/m² | - |
| 1778014739 | 25° C | 45% | 1007.6 hPa | 0 mm | - | 266 W/m² | - |
| 1778012012 | 26.11° C | 45% | 1007.6 hPa | 0 mm | - | 444 W/m² | - |
| 1778011102 | 26.11° C | 46% | 1007.5 hPa | 0 mm | - | 449 W/m² | - |
| 1778010194 | 27.22° C | 42% | 1007.1 hPa | 0 mm | - | 540 W/m² | - |
| 1778008680 | 27.78° C | 40% | 1007.6 hPa | 0 mm | - | 586 W/m² | - |
| 1778006253 | 27.78° C | 41% | 1007.9 hPa | 0 mm | - | 666 W/m² | - |
| 1778005040 | 27.78° C | 42% | 1007.7 hPa | 0 mm | - | 711 W/m² | - |
| 1778004434 | 27.22° C | 45% | 1008.1 hPa | 0 mm | - | 721 W/m² | - |
| 1778003220 | 27.22° C | 43% | 1008.1 hPa | 0 mm | - | 747 W/m² | - |
| 1778002916 | 27.22° C | 44% | 1008.4 hPa | 0 mm | - | 750 W/m² | - |
| 1778002613 | 26.67° C | 44% | 1008.4 hPa | 0 mm | - | 754 W/m² | - |
| 1778002310 | 26.11° C | 44% | 1008.3 hPa | 0 mm | - | 756 W/m² | - |
| 1778001704 | 26.67° C | 43% | 1008.6 hPa | 0 mm | - | 762 W/m² | - |
| 1778001101 | 27.22° C | 44% | 1008.5 hPa | 0 mm | - | 767 W/m² | - |
| 1778000195 | 26.11° C | 47% | 1008.9 hPa | 0 mm | - | 770 W/m² | - |
| 1777999285 | 26.11° C | 49% | 1009.2 hPa | 0 mm | - | 770 W/m² | - |
| 1777998983 | 26.67° C | 44% | 1009.3 hPa | 0 mm | - | 769 W/m² | - |
| 1777997772 | 25° C | 50% | 1009.4 hPa | 0 mm | - | 759 W/m² | - |
| 1777997167 | 24.44° C | 50% | 1009.7 hPa | 0 mm | - | 660 W/m² | - |
| 1777996560 | 24.44° C | 51% | 1009.7 hPa | 0 mm | - | 706 W/m² | - |
* Rain latest hour (hover to see other rain measurements)
** Current wind speed in m/s (hover to see current wind gust speed)